JZR173 OKKK-OSDI
Flight info
| Callsign | JZR173 |
|---|---|
| Flight time | N/A |
| Altitude | 36000 |
| Route | NIDAP L550 VATIM L768 SOKAN |
| Aircraft | A20N/M-SDE2E3FGHIRWXY/LB1 |
Departure
| Time | 2026-05-08 09:14 |
|---|---|
| Airport | Kuwait International Airport (OKKK) |
Arrival
| Time | N/A |
|---|---|
| Airport | Damascus International Airport (OSDI) |
| Time | Latitude | Longitude | Altitude | Speed | Heading |
|---|---|---|---|---|---|
| 2026-05-08 09:01 | 29.23674 | 47.96905 | 149 ft | 0 kts | 154° |
| 2026-05-08 09:03 | 29.23684 | 47.96899 | 149 ft | 2 kts | 155° |
| 2026-05-08 09:04 | 29.23697 | 47.96892 | 149 ft | 2 kts | 154° |
| 2026-05-08 09:04 | 29.23710 | 47.96885 | 149 ft | 2 kts | 155° |
| 2026-05-08 09:04 | 29.23724 | 47.96878 | 149 ft | 2 kts | 181° |
| 2026-05-08 09:04 | 29.23738 | 47.96884 | 149 ft | 2 kts | 222° |
| 2026-05-08 09:05 | 29.23743 | 47.96891 | 149 ft | 1 kts | 245° |
| 2026-05-08 09:05 | 29.23746 | 47.96898 | 149 ft | 0 kts | 244° |
| 2026-05-08 09:07 | 29.23735 | 47.96872 | 149 ft | 7 kts | 244° |
| 2026-05-08 09:07 | 29.23706 | 47.96804 | 148 ft | 11 kts | 245° |
| 2026-05-08 09:07 | 29.23672 | 47.96716 | 146 ft | 13 kts | 246° |
| 2026-05-08 09:07 | 29.23612 | 47.96643 | 145 ft | 13 kts | 182° |
| 2026-05-08 09:08 | 29.23557 | 47.96698 | 146 ft | 13 kts | 122° |
| 2026-05-08 09:08 | 29.23515 | 47.96737 | 146 ft | 13 kts | 147° |
| 2026-05-08 09:08 | 29.23476 | 47.96766 | 147 ft | 11 kts | 152° |
| 2026-05-08 09:08 | 29.23411 | 47.96789 | 147 ft | 9 kts | 173° |
| 2026-05-08 09:09 | 29.23333 | 47.96798 | 148 ft | 13 kts | 172° |
| 2026-05-08 09:09 | 29.23231 | 47.96836 | 148 ft | 17 kts | 153° |
| 2026-05-08 09:09 | 29.23110 | 47.96903 | 151 ft | 20 kts | 155° |
| 2026-05-08 09:09 | 29.22974 | 47.96973 | 154 ft | 22 kts | 154° |
| 2026-05-08 09:10 | 29.22827 | 47.97057 | 155 ft | 24 kts | 153° |
| 2026-05-08 09:10 | 29.22676 | 47.97136 | 157 ft | 23 kts | 156° |
| 2026-05-08 09:10 | 29.22537 | 47.97212 | 161 ft | 21 kts | 155° |
| 2026-05-08 09:10 | 29.22408 | 47.97281 | 163 ft | 20 kts | 153° |
| 2026-05-08 09:11 | 29.22279 | 47.97351 | 164 ft | 20 kts | 155° |
| 2026-05-08 09:11 | 29.22149 | 47.97420 | 165 ft | 20 kts | 155° |
| 2026-05-08 09:11 | 29.22023 | 47.97486 | 167 ft | 15 kts | 155° |
| 2026-05-08 09:11 | 29.21985 | 47.97503 | 167 ft | 5 kts | 168° |
| 2026-05-08 09:12 | 29.21945 | 47.97498 | 167 ft | 6 kts | 202° |
| 2026-05-08 09:12 | 29.21917 | 47.97449 | 166 ft | 9 kts | 271° |
| 2026-05-08 09:12 | 29.21941 | 47.97374 | 165 ft | 11 kts | 293° |
| 2026-05-08 09:12 | 29.21978 | 47.97292 | 164 ft | 12 kts | 306° |
| 2026-05-08 09:13 | 29.22094 | 47.97192 | 162 ft | 49 kts | 335° |
| 2026-05-08 09:13 | 29.22629 | 47.96907 | 156 ft | 121 kts | 334° |
| 2026-05-08 09:13 | 29.23534 | 47.96421 | 256 ft | 164 kts | 336° |
| 2026-05-08 09:13 | 29.24552 | 47.95906 | 798 ft | 166 kts | 338° |
| 2026-05-08 09:14 | 29.25642 | 47.95356 | 1165 ft | 179 kts | 337° |
| 2026-05-08 09:14 | 29.26791 | 47.94764 | 1550 ft | 190 kts | 336° |
| 2026-05-08 09:14 | 29.27967 | 47.94149 | 2135 ft | 188 kts | 336° |
| 2026-05-08 09:14 | 29.29189 | 47.93505 | 2503 ft | 201 kts | 336° |
| 2026-05-08 09:15 | 29.30481 | 47.92823 | 2942 ft | 213 kts | 336° |
| 2026-05-08 09:15 | 29.31863 | 47.92092 | 3420 ft | 225 kts | 336° |
| 2026-05-08 09:15 | 29.33272 | 47.91350 | 4053 ft | 230 kts | 333° |
| 2026-05-08 09:15 | 29.34506 | 47.90270 | 4684 ft | 232 kts | 302° |
| 2026-05-08 09:16 | 29.34957 | 47.88582 | 5422 ft | 231 kts | 268° |
| 2026-05-08 09:16 | 29.34521 | 47.86845 | 6174 ft | 232 kts | 238° |
| 2026-05-08 09:16 | 29.33592 | 47.85383 | 6927 ft | 233 kts | 235° |
| 2026-05-08 09:16 | 29.32641 | 47.83883 | 7646 ft | 235 kts | 235° |
| 2026-05-08 09:17 | 29.31699 | 47.82362 | 8384 ft | 237 kts | 236° |
| 2026-05-08 09:17 | 29.30700 | 47.80861 | 9072 ft | 242 kts | 224° |
| 2026-05-08 09:17 | 29.29198 | 47.79892 | 9482 ft | 262 kts | 196° |
| 2026-05-08 09:17 | 29.27315 | 47.79895 | 9918 ft | 284 kts | 167° |
| 2026-05-08 09:18 | 29.25567 | 47.80980 | 10557 ft | 296 kts | 146° |
| 2026-05-08 09:18 | 29.23907 | 47.82390 | 11275 ft | 300 kts | 147° |
| 2026-05-08 09:18 | 29.22238 | 47.83760 | 11982 ft | 302 kts | 148° |
| 2026-05-08 09:18 | 29.20435 | 47.85022 | 12717 ft | 304 kts | 154° |
| 2026-05-08 09:19 | 29.18524 | 47.86061 | 13263 ft | 312 kts | 159° |
| 2026-05-08 09:19 | 29.16503 | 47.87014 | 13568 ft | 329 kts | 160° |
| 2026-05-08 09:19 | 29.14306 | 47.88026 | 13864 ft | 346 kts | 160° |
| 2026-05-08 09:19 | 29.12045 | 47.89067 | 14144 ft | 362 kts | 160° |
| 2026-05-08 09:20 | 29.09671 | 47.90164 | 14489 ft | 375 kts | 160° |
| 2026-05-08 09:20 | 29.07284 | 47.91274 | 15058 ft | 380 kts | 160° |
| 2026-05-08 09:20 | 29.04850 | 47.92408 | 15668 ft | 384 kts | 161° |
| 2026-05-08 09:20 | 29.02387 | 47.93556 | 16253 ft | 388 kts | 161° |
| 2026-05-08 09:21 | 28.99885 | 47.94719 | 16829 ft | 392 kts | 162° |
| 2026-05-08 09:21 | 28.97327 | 47.95906 | 17411 ft | 396 kts | 162° |
| 2026-05-08 09:22 | 28.81191 | 47.98049 | 20924 ft | 395 kts | 182° |
| 2026-05-08 09:23 | 28.78412 | 47.98119 | 21186 ft | 404 kts | 184° |
| 2026-05-08 09:23 | 28.75693 | 47.97608 | 21484 ft | 403 kts | 204° |
| 2026-05-08 09:23 | 28.73317 | 47.95978 | 22040 ft | 399 kts | 221° |
| 2026-05-08 09:23 | 28.71467 | 47.93612 | 22566 ft | 401 kts | 236° |
| 2026-05-08 09:24 | 28.70286 | 47.90760 | 23002 ft | 408 kts | 251° |
| 2026-05-08 09:24 | 28.69674 | 47.87603 | 23496 ft | 411 kts | 256° |
| 2026-05-08 09:24 | 28.69123 | 47.84420 | 23951 ft | 414 kts | 256° |
| 2026-05-08 09:24 | 28.68558 | 47.81237 | 24362 ft | 416 kts | 255° |
| 2026-05-08 09:25 | 28.67987 | 47.78070 | 24794 ft | 417 kts | 255° |
| 2026-05-08 09:25 | 28.67395 | 47.74845 | 25227 ft | 418 kts | 255° |
| 2026-05-08 09:25 | 28.66802 | 47.71646 | 25619 ft | 420 kts | 254° |
| 2026-05-08 09:25 | 28.66196 | 47.68386 | 26003 ft | 421 kts | 254° |
| 2026-05-08 09:26 | 28.65659 | 47.65167 | 26404 ft | 423 kts | 257° |
| 2026-05-08 09:26 | 28.65347 | 47.61888 | 26741 ft | 427 kts | 262° |
| 2026-05-08 09:26 | 28.65282 | 47.58543 | 27067 ft | 432 kts | 266° |
| 2026-05-08 09:26 | 28.65465 | 47.55129 | 27378 ft | 436 kts | 269° |
| 2026-05-08 09:27 | 28.65740 | 47.51725 | 27694 ft | 437 kts | 270° |
| 2026-05-08 09:27 | 28.66032 | 47.48299 | 28085 ft | 436 kts | 270° |
| 2026-05-08 09:27 | 28.66320 | 47.44929 | 28508 ft | 434 kts | 269° |
| 2026-05-08 09:27 | 28.66608 | 47.41530 | 28890 ft | 432 kts | 269° |
| 2026-05-08 09:28 | 28.66890 | 47.38147 | 29320 ft | 430 kts | 269° |
| 2026-05-08 09:28 | 28.67171 | 47.34770 | 29688 ft | 429 kts | 268° |
| 2026-05-08 09:28 | 28.67450 | 47.31390 | 30055 ft | 427 kts | 268° |
| 2026-05-08 09:28 | 28.67723 | 47.28053 | 30462 ft | 424 kts | 268° |
| 2026-05-08 09:29 | 28.67992 | 47.24778 | 30859 ft | 421 kts | 267° |
| 2026-05-08 09:29 | 28.68263 | 47.21468 | 31270 ft | 418 kts | 267° |
| 2026-05-08 09:29 | 28.68525 | 47.18205 | 31680 ft | 414 kts | 266° |
| 2026-05-08 09:29 | 28.68785 | 47.14978 | 32059 ft | 411 kts | 266° |
| 2026-05-08 09:30 | 28.69044 | 47.11765 | 32437 ft | 408 kts | 266° |
| 2026-05-08 09:30 | 28.69301 | 47.08559 | 32789 ft | 405 kts | 266° |
| 2026-05-08 09:30 | 28.69552 | 47.05421 | 33130 ft | 402 kts | 266° |
| 2026-05-08 09:30 | 28.69802 | 47.02251 | 33446 ft | 401 kts | 265° |
| 2026-05-08 09:31 | 28.70043 | 46.99155 | 33790 ft | 398 kts | 266° |
| 2026-05-08 09:31 | 28.70292 | 46.96023 | 34156 ft | 396 kts | 266° |
| 2026-05-08 09:31 | 28.70528 | 46.92979 | 34465 ft | 394 kts | 265° |
| 2026-05-08 09:31 | 28.70774 | 46.89853 | 34671 ft | 394 kts | 265° |
| 2026-05-08 09:32 | 28.71017 | 46.86757 | 34816 ft | 396 kts | 266° |
| 2026-05-08 09:32 | 28.71265 | 46.83644 | 34962 ft | 397 kts | 265° |
| 2026-05-08 09:32 | 28.71519 | 46.80519 | 35152 ft | 397 kts | 266° |
| 2026-05-08 09:32 | 28.71765 | 46.77449 | 35365 ft | 396 kts | 266° |
| 2026-05-08 09:33 | 28.72012 | 46.74378 | 35558 ft | 395 kts | 266° |
| 2026-05-08 09:33 | 28.72497 | 46.68195 | 35757 ft | 397 kts | 266° |
| 2026-05-08 09:33 | 28.72748 | 46.65052 | 35876 ft | 398 kts | 265° |
| 2026-05-08 09:34 | 28.72989 | 46.61951 | 35968 ft | 399 kts | 265° |
| 2026-05-08 09:34 | 28.73472 | 46.55762 | 36011 ft | 401 kts | 265° |
| 2026-05-08 09:35 | 28.73955 | 46.49513 | 36016 ft | 400 kts | 265° |
| 2026-05-08 09:35 | 28.74434 | 46.43303 | 36020 ft | 399 kts | 265° |
| 2026-05-08 09:36 | 28.74911 | 46.37048 | 36012 ft | 400 kts | 265° |
| 2026-05-08 09:36 | 28.75380 | 46.30834 | 36017 ft | 398 kts | 265° |
| 2026-05-08 09:37 | 28.75841 | 46.24623 | 36014 ft | 400 kts | 265° |
| 2026-05-08 09:37 | 28.76291 | 46.18441 | 36010 ft | 398 kts | 265° |
| 2026-05-08 09:38 | 28.76742 | 46.12203 | 36015 ft | 399 kts | 265° |
| 2026-05-08 09:38 | 28.77188 | 46.05964 | 36014 ft | 399 kts | 265° |
| 2026-05-08 09:39 | 28.77634 | 45.99684 | 36025 ft | 400 kts | 265° |
| 2026-05-08 09:39 | 28.78077 | 45.93446 | 36011 ft | 400 kts | 264° |
| 2026-05-08 09:40 | 28.78516 | 45.87171 | 36016 ft | 399 kts | 264° |
| 2026-05-08 09:40 | 28.78953 | 45.80879 | 36026 ft | 400 kts | 265° |
| 2026-05-08 09:41 | 28.79387 | 45.74596 | 36026 ft | 399 kts | 265° |
| 2026-05-08 09:41 | 28.79817 | 45.68360 | 36020 ft | 399 kts | 264° |
| 2026-05-08 09:42 | 28.80255 | 45.62092 | 36023 ft | 401 kts | 265° |
| 2026-05-08 09:42 | 28.80692 | 45.55759 | 36027 ft | 401 kts | 265° |
| 2026-05-08 09:43 | 28.81123 | 45.49448 | 36029 ft | 401 kts | 264° |
| 2026-05-08 09:43 | 28.81552 | 45.43137 | 36031 ft | 402 kts | 265° |
| 2026-05-08 09:44 | 28.81977 | 45.36842 | 36027 ft | 401 kts | 265° |
| 2026-05-08 09:44 | 28.82399 | 45.30524 | 36032 ft | 401 kts | 264° |
| 2026-05-08 09:45 | 28.82822 | 45.24226 | 36036 ft | 401 kts | 264° |
| 2026-05-08 09:45 | 28.83233 | 45.17959 | 36038 ft | 401 kts | 264° |
| 2026-05-08 09:46 | 28.83646 | 45.11631 | 36038 ft | 400 kts | 264° |
| 2026-05-08 09:46 | 28.84053 | 45.05360 | 36043 ft | 400 kts | 264° |
| 2026-05-08 09:47 | 28.84462 | 44.99053 | 36048 ft | 402 kts | 264° |
| 2026-05-08 09:47 | 28.84864 | 44.92726 | 36047 ft | 401 kts | 264° |
| 2026-05-08 09:48 | 28.85268 | 44.86388 | 36053 ft | 402 kts | 265° |
| 2026-05-08 09:48 | 28.86132 | 44.80088 | 36052 ft | 414 kts | 272° |
| 2026-05-08 09:49 | 28.87850 | 44.73770 | 36056 ft | 425 kts | 281° |
| 2026-05-08 09:49 | 28.90449 | 44.67664 | 36057 ft | 438 kts | 289° |
| 2026-05-08 09:50 | 28.93853 | 44.61832 | 36062 ft | 446 kts | 294° |
| 2026-05-08 09:50 | 28.97439 | 44.56047 | 36057 ft | 446 kts | 294° |
| 2026-05-08 09:51 | 29.01003 | 44.50281 | 36064 ft | 446 kts | 294° |
| 2026-05-08 09:51 | 29.04583 | 44.44465 | 36061 ft | 448 kts | 294° |
| 2026-05-08 09:52 | 29.08134 | 44.38684 | 36067 ft | 448 kts | 294° |
| 2026-05-08 09:52 | 29.11708 | 44.32864 | 36074 ft | 447 kts | 293° |
| 2026-05-08 09:53 | 29.15294 | 44.27040 | 36070 ft | 448 kts | 293° |
| 2026-05-08 09:53 | 29.18856 | 44.21224 | 36071 ft | 449 kts | 293° |
| 2026-05-08 09:54 | 29.22426 | 44.15377 | 36076 ft | 449 kts | 293° |
| 2026-05-08 09:54 | 29.25994 | 44.09528 | 36073 ft | 449 kts | 293° |
| 2026-05-08 09:55 | 29.29559 | 44.03672 | 36080 ft | 449 kts | 293° |
| 2026-05-08 09:55 | 29.33123 | 43.97802 | 36078 ft | 451 kts | 293° |
| 2026-05-08 09:56 | 29.36690 | 43.91927 | 36077 ft | 449 kts | 294° |
| 2026-05-08 09:56 | 29.40250 | 43.86055 | 36080 ft | 448 kts | 294° |
| 2026-05-08 09:57 | 29.45595 | 43.77213 | 36075 ft | 451 kts | 294° |
| 2026-05-08 09:57 | 29.49174 | 43.71281 | 36078 ft | 452 kts | 294° |
| 2026-05-08 09:58 | 29.52741 | 43.65362 | 36081 ft | 451 kts | 294° |
| 2026-05-08 09:58 | 29.56298 | 43.59449 | 36082 ft | 450 kts | 294° |
| 2026-05-08 09:59 | 29.59829 | 43.53564 | 36082 ft | 450 kts | 294° |
| 2026-05-08 09:59 | 29.63360 | 43.47617 | 36077 ft | 450 kts | 293° |
| 2026-05-08 10:00 | 29.66754 | 43.41591 | 36087 ft | 449 kts | 293° |
| 2026-05-08 10:00 | 29.70129 | 43.35558 | 36087 ft | 449 kts | 292° |
| 2026-05-08 10:01 | 29.73467 | 43.29573 | 36079 ft | 447 kts | 292° |
| 2026-05-08 10:01 | 29.76817 | 43.23562 | 36072 ft | 447 kts | 292° |
| 2026-05-08 10:02 | 29.80162 | 43.17562 | 36085 ft | 447 kts | 293° |
| 2026-05-08 10:02 | 29.83534 | 43.11519 | 36070 ft | 449 kts | 293° |
| 2026-05-08 10:03 | 29.86876 | 43.05517 | 36083 ft | 449 kts | 293° |
| 2026-05-08 10:03 | 29.90252 | 42.99443 | 36075 ft | 448 kts | 293° |
| 2026-05-08 10:04 | 29.93601 | 42.93420 | 36080 ft | 446 kts | 294° |
| 2026-05-08 10:04 | 29.96951 | 42.87378 | 36090 ft | 448 kts | 294° |
| 2026-05-08 10:05 | 30.00281 | 42.81358 | 35848 ft | 446 kts | 294° |
| 2026-05-08 10:05 | 30.01935 | 42.78370 | 35990 ft | 446 kts | 294° |
| 2026-05-08 10:05 | 30.03613 | 42.75334 | 36050 ft | 448 kts | 294° |
| 2026-05-08 10:06 | 30.06969 | 42.69252 | 36073 ft | 451 kts | 294° |
| 2026-05-08 10:06 | 30.10304 | 42.63205 | 36092 ft | 449 kts | 294° |
| 2026-05-08 10:07 | 30.13672 | 42.57143 | 36089 ft | 450 kts | 295° |
| 2026-05-08 10:07 | 30.17030 | 42.51071 | 36090 ft | 449 kts | 295° |
| 2026-05-08 10:08 | 30.20374 | 42.44991 | 36098 ft | 450 kts | 295° |
| 2026-05-08 10:08 | 30.23708 | 42.38908 | 36102 ft | 449 kts | 295° |
| 2026-05-08 10:09 | 30.27042 | 42.32812 | 36099 ft | 448 kts | 295° |
| 2026-05-08 10:09 | 30.30362 | 42.26712 | 36086 ft | 449 kts | 295° |
| 2026-05-08 10:10 | 30.33679 | 42.20616 | 36103 ft | 448 kts | 295° |
| 2026-05-08 10:10 | 30.36992 | 42.14530 | 36087 ft | 449 kts | 295° |
| 2026-05-08 10:11 | 30.40307 | 42.08426 | 36091 ft | 449 kts | 296° |
| 2026-05-08 10:11 | 30.43608 | 42.02347 | 36105 ft | 449 kts | 296° |
| 2026-05-08 10:12 | 30.46914 | 41.96251 | 36095 ft | 448 kts | 296° |
| 2026-05-08 10:12 | 30.50222 | 41.90136 | 36089 ft | 448 kts | 296° |
| 2026-05-08 10:13 | 30.53509 | 41.84055 | 36090 ft | 449 kts | 296° |
| 2026-05-08 10:13 | 30.56823 | 41.77914 | 36092 ft | 448 kts | 296° |
| 2026-05-08 10:14 | 30.60095 | 41.71841 | 36092 ft | 447 kts | 297° |
| 2026-05-08 10:14 | 30.63394 | 41.65705 | 36095 ft | 447 kts | 297° |
| 2026-05-08 10:15 | 30.66663 | 41.59620 | 36098 ft | 448 kts | 297° |
| 2026-05-08 10:15 | 30.69946 | 41.53493 | 36103 ft | 447 kts | 297° |
| 2026-05-08 10:16 | 30.73221 | 41.47375 | 36100 ft | 446 kts | 297° |
| 2026-05-08 10:16 | 30.76481 | 41.41273 | 36104 ft | 446 kts | 297° |
| 2026-05-08 10:17 | 30.79741 | 41.35162 | 36110 ft | 446 kts | 297° |
| 2026-05-08 10:17 | 30.82991 | 41.29033 | 36116 ft | 445 kts | 297° |
| 2026-05-08 10:18 | 30.86238 | 41.22913 | 36113 ft | 444 kts | 297° |
| 2026-05-08 10:18 | 30.89467 | 41.16829 | 36121 ft | 445 kts | 297° |
| 2026-05-08 10:19 | 30.92549 | 41.10578 | 36121 ft | 443 kts | 294° |
| 2026-05-08 10:20 | 30.96893 | 41.01178 | 36123 ft | 442 kts | 294° |
| 2026-05-08 10:20 | 30.99808 | 40.94853 | 36126 ft | 442 kts | 294° |
| 2026-05-08 10:21 | 31.02698 | 40.88571 | 36118 ft | 441 kts | 294° |
| 2026-05-08 10:21 | 31.05598 | 40.82256 | 36122 ft | 442 kts | 295° |
| 2026-05-08 10:22 | 31.08489 | 40.75955 | 36120 ft | 442 kts | 295° |
| 2026-05-08 10:22 | 31.11387 | 40.69646 | 36146 ft | 442 kts | 295° |
| 2026-05-08 10:23 | 31.14298 | 40.63348 | 36128 ft | 442 kts | 295° |
| 2026-05-08 10:23 | 31.17190 | 40.57041 | 36143 ft | 442 kts | 295° |
| 2026-05-08 10:24 | 31.20054 | 40.50768 | 36146 ft | 441 kts | 295° |
| 2026-05-08 10:24 | 31.22931 | 40.44450 | 36142 ft | 442 kts | 295° |
| 2026-05-08 10:25 | 31.25806 | 40.38117 | 36149 ft | 441 kts | 295° |
| 2026-05-08 10:25 | 31.28679 | 40.31771 | 36143 ft | 441 kts | 295° |
| 2026-05-08 10:26 | 31.31517 | 40.25474 | 36145 ft | 442 kts | 295° |
| 2026-05-08 10:26 | 31.34386 | 40.19117 | 36146 ft | 442 kts | 295° |
| 2026-05-08 10:27 | 31.37250 | 40.12760 | 36147 ft | 442 kts | 295° |
| 2026-05-08 10:27 | 31.40115 | 40.06396 | 36149 ft | 443 kts | 295° |
| 2026-05-08 10:28 | 31.42968 | 40.00051 | 36149 ft | 443 kts | 296° |
| 2026-05-08 10:28 | 31.45815 | 39.93707 | 36153 ft | 443 kts | 296° |
| 2026-05-08 10:29 | 31.48670 | 39.87336 | 36150 ft | 443 kts | 296° |
| 2026-05-08 10:29 | 31.51509 | 39.80985 | 36154 ft | 442 kts | 296° |
| 2026-05-08 10:30 | 31.54368 | 39.74582 | 36151 ft | 442 kts | 296° |
| 2026-05-08 10:30 | 31.57207 | 39.68208 | 36156 ft | 442 kts | 296° |
| 2026-05-08 10:31 | 31.60038 | 39.61846 | 36154 ft | 442 kts | 296° |
| 2026-05-08 10:31 | 31.62860 | 39.55488 | 36155 ft | 442 kts | 296° |
| 2026-05-08 10:32 | 31.65694 | 39.49093 | 36157 ft | 441 kts | 296° |
| 2026-05-08 10:32 | 31.68504 | 39.42734 | 36156 ft | 441 kts | 296° |
| 2026-05-08 10:33 | 31.71326 | 39.36335 | 36158 ft | 442 kts | 296° |
| 2026-05-08 10:33 | 31.74138 | 39.29932 | 36157 ft | 441 kts | 296° |
| 2026-05-08 10:34 | 31.77128 | 39.23680 | 36159 ft | 443 kts | 302° |
| 2026-05-08 10:34 | 31.81040 | 39.18087 | 36158 ft | 445 kts | 313° |
| 2026-05-08 10:35 | 31.85778 | 39.13459 | 36160 ft | 448 kts | 324° |
| 2026-05-08 10:35 | 31.91218 | 39.09839 | 36162 ft | 450 kts | 331° |
| 2026-05-08 10:36 | 31.96823 | 39.06567 | 36160 ft | 450 kts | 331° |
| 2026-05-08 10:36 | 32.02419 | 39.03284 | 36161 ft | 449 kts | 331° |
| 2026-05-08 10:37 | 32.08001 | 39.00003 | 36162 ft | 449 kts | 331° |
| 2026-05-08 10:37 | 32.13579 | 38.96729 | 36163 ft | 449 kts | 331° |
| 2026-05-08 10:38 | 32.19169 | 38.93446 | 36162 ft | 448 kts | 331° |
| 2026-05-08 10:38 | 32.24736 | 38.90160 | 36161 ft | 447 kts | 331° |
| 2026-05-08 10:39 | 32.30304 | 38.86861 | 36162 ft | 446 kts | 331° |
| 2026-05-08 10:39 | 32.35840 | 38.83575 | 36164 ft | 446 kts | 331° |
| 2026-05-08 10:40 | 32.41367 | 38.80288 | 36162 ft | 446 kts | 331° |
| 2026-05-08 10:40 | 32.46886 | 38.77000 | 36159 ft | 445 kts | 331° |
| 2026-05-08 10:41 | 32.52406 | 38.73703 | 36158 ft | 444 kts | 330° |
| 2026-05-08 10:41 | 32.57936 | 38.70398 | 36156 ft | 444 kts | 330° |
| 2026-05-08 10:42 | 32.63430 | 38.67128 | 36153 ft | 443 kts | 331° |
| 2026-05-08 10:42 | 32.68915 | 38.63862 | 36151 ft | 442 kts | 330° |